Weather observations for the past three days for
Santa Barbara, Santa Barbara Municipal Airport
Metric (Imperial)
Date Time (pdt) Wind (kph) Vis. (km) Weather Sky Cond. Temperature (ºC) Relative Humidity Wind Chill (°C) Heat Index (°C) Pressure Precipitation (cm)
Air Dwpt 6 hour altimeter (cm) sea level (mb) 1 hr 3 hr 6 hr
Max. Min.
08 04:53 E 11 9.66 Fog/Mist OVC007 14.4 13.3 15 13.3 93% 76.2 1015.7
08 03:53 E 13 11.27 Fair CLR 13.9 12.8 93% 76.15 1015.2
08 02:53 Calm 12.87 Fair CLR 13.3 12.2 93% 76.12 1014.9
08 01:53 NE 7 11.27 Fair CLR 13.9 12.2 90% 76.12 1014.9
08 00:53 E 7 12.87 Fair CLR 14.4 12.8 90% 76.12 1014.9
07 23:53 NE 11 12.87 Fair CLR 15 12.8 87% 76.12 1014.8
07 22:53 E 11 12.87 Fair CLR 15 13.3 17.8 14.4 90% 76.1 1014.4
07 21:53 SE 11 11.27 Fair CLR 15 13.3 90% 76.07 1014.1
07 20:53 SE 9 12.87 Fair CLR 15 13.3 90% 76.02 1013.5
07 19:53 SE 11 11.27 Fair CLR 15 13.3 90% 76 1013.2
07 18:53 SE 11 11.27 Fair CLR 15.6 13.3 86% 75.97 1012.9
07 17:53 SE 11 12.87 Fair CLR 16.7 12.8 78% 76 1013.3
07 16:53 SE 13 16.09 Fair CLR 17.8 12.8 21.1 17.2 73% 76.02 1013.6
07 15:53 SW 13 16.09 Fair CLR 21.1 12.8 59% 76.07 1014.0
07 14:53 SW 15 16.09 A Few Clouds FEW050 20 12.2 61% 76.12 1014.9
07 13:53 W 13 16.09 Fair CLR 19.4 12.2 63% 76.17 1015.6
07 12:53 SW 11 16.09 Fair CLR 20.6 12.8 61% 76.2 1015.8
07 11:53 SW 11 16.09 Fair CLR 19.4 12.8 66% 76.23 1016.2
07 10:53 Vrbl 9 16.09 Fair CLR 18.3 12.8 18.9 10.6 70% 76.23 1016.3
07 09:53 S 7 16.09 Fair CLR 17.8 12.2 70% 76.23 1016.2
07 08:53 S 6 16.09 Fair CLR 17.2 12.2 73% 76.25 1016.5
07 07:53 Calm 16.09 Fair CLR 15.6 12.2 80% 76.25 1016.5
07 06:53 Calm 16.09 Fair CLR 11.7 10.6 93% 76.23 1016.1
07 05:53 N 6 16.09 Fair CLR 11.7 10.6 93% 76.2 1015.7
07 04:53 Calm 16.09 Fair CLR 11.7 10.6 15 11.7 93% 76.2 1015.7
07 03:53 Calm 16.09 Fair CLR 12.8 11.7 93% 76.2 1015.8
07 02:53 N 7 16.09 Fair CLR 12.8 11.1 90% 76.23 1016.1
07 01:53 NE 6 16.09 Fair CLR 12.8 11.1 90% 76.23 1016.3
07 00:53 E 6 16.09 Fair CLR 14.4 12.2 87% 76.25 1016.5
06 23:53 NE 6 16.09 Fair CLR 15 12.2 83% 76.25 1016.4
06 22:53 E 7 16.09 Fair CLR 14.4 12.2 20.6 13.9 87% 76.25 1016.3
06 21:53 SE 7 16.09 Fair CLR 14.4 12.2 87% 76.23 1016.1
06 20:53 S 6 16.09 Fair CLR 14.4 11.7 84% 76.2 1015.7
06 19:53 Calm 16.09 Fair CLR 17.2 12.2 73% 76.15 1015.1
06 18:53 Calm 16.09 Fair CLR 18.9 12.2 65% 76.15 1015.2
06 17:53 SW 7 16.09 Fair CLR 19.4 10.6 57% 76.17 1015.4
06 16:53 SW 9 16.09 Fair CLR 20 10.6 20.6 16.7 55% 76.17 1015.7
06 15:53 S 9 16.09 Fair CLR 20.6 11.7 57% 76.25 1016.4
06 14:53 S 11 16.09 Fair CLR 19.4 10.6 57% 76.33 1017.4
06 13:53 S 13 16.09 Fair CLR 18.9 10.6 59% 76.35 1017.7
06 12:53 S 13 16.09 Fair CLR 17.8 11.7 68% 76.38 1018.2
06 11:53 S 13 16.09 Fair CLR 18.3 10.6 61% 76.4 1018.5
06 10:53 S 13 16.09 Fair CLR 16.7 12.2 17.8 8.9 75% 76.43 1018.7
06 09:53 S 13 16.09 Fair CLR 16.7 11.7 73% 76.4 1018.5
06 08:53 SE 11 16.09 Fair CLR 16.1 11.1 72% 76.38 1018.4
06 06:53 Calm 16.09 Fair CLR 11.1 9.4 89% 76.35 1017.8
06 05:53 NE 6 16.09 Fair CLR 10 8.3 89% 76.3 1017.3
06 04:53 Calm 16.09 Fair CLR 10 7.8 16.1 9.4 86% 76.3 1017.3
06 03:53 Calm 16.09 Fair CLR 10.6 8.9 89% 76.3 1017.2
06 02:53 Calm 16.09 Fair CLR 11.1 9.4 89% 76.28 1017.0
06 01:53 E 11 16.09 Fair CLR 13.3 11.1 87% 76.28 1017.0
06 00:53 E 11 16.09 Fair CLR 14.4 10.6 78% 76.3 1017.1
05 23:53 E 22 16.09 Fair CLR 15 8.9 67% 76.25 1016.4
05 22:53 Calm 16.09 Fair CLR 16.1 8.9 19.4 13.9 63% 76.2 1016.0
05 21:53 N 9 16.09 Fair CLR 16.1 8.9 63% 76.15 1015.3
05 20:53 Calm 16.09 Fair CLR 16.7 8.9 60% 76.1 1014.6
05 19:53 W 7 16.09 Fair CLR 17.8 8.9 56% 76.05 1013.8
05 18:53 W 9 16.09 Mostly Cloudy BKN080 17.8 10 60% 76 1013.1
05 17:53 W 15 16.09 Partly Cloudy SCT085 17.8 10 60% 75.97 1012.8
05 16:53 W 22 G 39 16.09 Partly Cloudy SCT080 19.4 10 22.2 17.2 55% 75.95 1012.6
05 15:53 W 26 G 43 16.09 Mostly Cloudy BKN070 20.6 9.4 49% 75.97 1012.7
05 14:53 W 24 G 39 16.09 Overcast BKN060 OVC100 18.9 10.6 59% 76 1013.2
05 13:53 W 30 G 50 16.09 Mostly Cloudy FEW065 BKN085 18.9 9.4 54% 76.02 1013.5
05 12:53 W 26 G 41 16.09 A Few Clouds FEW065 FEW100 18.9 10 56% 76.05 1013.9
05 11:53 SW 22 16.09 Fair CLR 19.4 8.9 51% 76.07 1014.1
05 10:53 SW 19 16.09 Fair CLR 19.4 7.2 20 11.1 45% 76.07 1014.1
05 09:53 S 13 16.09 Fair CLR 17.2 7.2 52% 76.07 1014.2
05 08:53 SE 6 16.09 Mostly Cloudy BKN075 15.6 6.7 56% 76.05 1013.9
05 07:53 SE 6 16.09 Partly Cloudy SCT075 14.4 7.8 65% 76.02 1013.6
05 06:53 E 6 16.09 Overcast OVC070 13.9 6.7 62% 76.02 1013.5
05 05:53 Calm 16.09 Overcast OVC080 13.3 6.1 62% 76.02 1013.3
Date Time (pdt) Wind (kph) Vis. (km) Weather Sky Cond. Air Dwpt Max. Min. Relative Humidity Wind Chill (°C) Heat Index (°C) altimeter (cm) sea level (mb) 1 hr 3 hr 6 hr
6 hour
Temperature (ºC) Pressure Precipitation (cm)